createdAt,value
2023-02-14T00:01:24.084Z,89.88
2023-02-14T00:04:26.584Z,89.65
2023-02-14T00:07:29.363Z,90.02
2023-02-14T00:10:32.016Z,90.34
2023-02-14T00:44:13.721Z,90.24
2023-02-14T00:47:16.219Z,90.48
2023-02-14T00:50:18.897Z,90.18
2023-02-14T00:53:21.449Z,90.46
2023-02-14T00:56:24.058Z,90.58
2023-02-14T00:59:26.973Z,90.68
2023-02-14T01:02:29.556Z,90.60
2023-02-14T01:05:32.210Z,90.62
2023-02-14T01:08:35.494Z,90.86
2023-02-14T01:11:40.355Z,90.67
2023-02-14T01:14:43.882Z,91.04
2023-02-14T01:17:46.355Z,91.40
2023-02-14T01:20:49.501Z,91.07
2023-02-14T01:23:54.782Z,90.50
2023-02-14T01:26:57.271Z,90.62
2023-02-14T01:30:01.430Z,90.26
2023-02-14T01:33:05.775Z,90.55
2023-02-14T01:36:16.082Z,90.50
2023-02-14T01:39:18.671Z,91.21
2023-02-14T01:42:21.229Z,90.68
2023-02-14T01:45:26.837Z,91.03
2023-02-14T01:48:29.478Z,90.83
2023-02-14T01:51:32.928Z,90.52
2023-02-14T01:54:39.846Z,90.22
2023-02-14T01:57:49.978Z,90.65
2023-02-14T02:00:59.173Z,90.51
2023-02-14T02:04:15.991Z,90.63
2023-02-14T02:07:23.227Z,90.35
2023-02-14T02:10:25.978Z,90.39
2023-02-14T02:13:28.451Z,90.63
2023-02-14T02:17:01.458Z,90.75
2023-02-14T02:20:22.865Z,90.81
2023-02-14T02:23:57.501Z,90.90
2023-02-14T02:27:25.961Z,90.59
2023-02-14T02:30:35.665Z,90.44
2023-02-14T02:34:12.703Z,90.07
2023-02-14T02:37:33.750Z,90.36
2023-02-14T02:41:09.043Z,90.34
2023-02-14T02:44:39.973Z,90.56
2023-02-14T02:48:18.010Z,90.53
2023-02-14T02:51:59.401Z,90.75
2023-02-14T02:55:10.445Z,90.90
2023-02-14T02:58:13.098Z,90.36
2023-02-14T03:01:21.888Z,90.56
2023-02-14T03:04:46.036Z,90.95
2023-02-14T03:07:49.349Z,90.28
2023-02-14T03:10:53.396Z,90.55
2023-02-14T03:14:14.616Z,90.81
2023-02-14T03:17:54.747Z,90.51
2023-02-14T03:21:31.116Z,90.38
2023-02-14T03:24:56.127Z,90.31
2023-02-14T03:28:32.246Z,90.22
2023-02-14T03:31:40.868Z,90.48
2023-02-14T03:35:00.137Z,90.54
2023-02-14T03:38:20.612Z,90.23
2023-02-14T03:41:31.586Z,91.63
2023-02-14T03:44:37.996Z,91.69
2023-02-14T03:47:43.265Z,91.22
2023-02-14T03:50:49.057Z,90.85
2023-02-14T03:53:57.784Z,90.72
2023-02-14T03:57:15.339Z,91.13
2023-02-14T04:00:18.904Z,90.71
2023-02-14T04:03:25.070Z,90.19
2023-02-14T04:06:27.740Z,90.97
2023-02-14T04:09:30.234Z,90.87
2023-02-14T04:12:38.077Z,90.98
2023-02-14T04:15:40.791Z,90.59
2023-02-14T04:19:01.765Z,91.36
2023-02-14T04:22:04.284Z,90.54
2023-02-14T04:25:07.383Z,91.53
2023-02-14T04:28:09.858Z,90.35
2023-02-14T04:31:12.473Z,90.46
2023-02-14T04:34:15.300Z,90.32
2023-02-14T04:37:19.440Z,90.12
2023-02-14T04:40:22.748Z,89.96
2023-02-14T04:43:25.144Z,89.79
2023-02-14T04:46:27.653Z,89.99
2023-02-14T04:49:30.308Z,90.29
2023-02-14T04:52:33.028Z,90.04
2023-02-14T04:55:35.637Z,90.45
2023-02-14T04:58:38.552Z,89.94
2023-02-14T05:01:41.648Z,90.33
2023-02-14T05:04:44.323Z,90.25
2023-02-14T05:07:47.888Z,90.27
2023-02-14T05:10:50.571Z,90.16
2023-02-14T05:13:53.271Z,90.76
2023-02-14T05:16:55.710Z,90.18
2023-02-14T05:19:58.627Z,90.69
2023-02-14T05:23:03.528Z,90.99
2023-02-14T05:26:06.314Z,90.57
2023-02-14T05:29:09.175Z,90.57
2023-02-14T05:32:11.785Z,91.08
2023-02-14T05:35:14.357Z,90.21
2023-02-14T05:38:17.136Z,90.56
2023-02-14T05:41:19.646Z,90.28
2023-02-14T05:44:23.100Z,90.04
2023-02-14T05:47:25.798Z,89.51
2023-02-14T05:50:29.056Z,90.07
2023-02-14T05:53:31.526Z,90.31
2023-02-14T05:56:34.031Z,89.44
2023-02-14T05:59:37.790Z,90.26
2023-02-14T06:02:40.356Z,89.88
2023-02-14T06:05:42.788Z,89.72
2023-02-14T06:08:45.181Z,89.94
2023-02-14T06:11:47.662Z,90.93
2023-02-14T06:14:50.261Z,91.76
2023-02-14T06:17:57.357Z,90.96
2023-02-14T06:21:00.278Z,90.74
2023-02-14T06:24:03.556Z,90.38
2023-02-14T06:27:06.037Z,91.36
2023-02-14T06:30:10.513Z,91.53
2023-02-14T06:33:13.388Z,91.24
2023-02-14T06:36:16.465Z,90.89
2023-02-14T06:39:19.021Z,90.46
2023-02-14T06:42:21.605Z,90.50
2023-02-14T06:45:35.328Z,90.17
2023-02-14T06:48:41.611Z,89.74
2023-02-14T06:51:44.305Z,89.72
2023-02-14T06:54:46.791Z,89.83
2023-02-14T06:57:50.722Z,89.64
2023-02-14T07:00:55.819Z,89.32
2023-02-14T07:03:58.323Z,89.05
2023-02-14T07:07:01.527Z,88.80
2023-02-14T07:10:04.872Z,88.91
2023-02-14T07:13:07.498Z,88.92
2023-02-14T07:16:10.925Z,88.71
2023-02-14T07:19:13.519Z,89.26
2023-02-14T07:22:16.155Z,90.73
2023-02-14T07:25:18.904Z,90.39
2023-02-14T07:28:21.502Z,89.59
2023-02-14T07:31:24.364Z,88.88
2023-02-14T07:34:27.430Z,87.62
2023-02-14T07:37:31.814Z,87.50
2023-02-14T07:40:34.573Z,86.55
2023-02-14T07:43:39.136Z,85.87
2023-02-14T07:46:42.004Z,85.83
2023-02-14T07:49:45.217Z,86.41
2023-02-14T07:52:48.607Z,85.38
2023-02-14T07:55:52.197Z,84.85
2023-02-14T07:58:55.189Z,85.18
2023-02-14T08:01:57.773Z,85.44
2023-02-14T08:05:00.404Z,85.64
2023-02-14T08:08:03.013Z,85.55
2023-02-14T08:11:05.756Z,84.77
2023-02-14T08:14:18.389Z,85.03
2023-02-14T08:17:58.751Z,84.01
2023-02-14T08:21:11.332Z,82.27
2023-02-14T08:24:17.420Z,81.80
2023-02-14T08:27:21.598Z,81.75
2023-02-14T08:30:24.668Z,81.26
2023-02-14T08:33:27.377Z,81.08
2023-02-14T08:36:39.133Z,81.38
2023-02-14T08:39:42.677Z,80.84
2023-02-14T08:42:45.353Z,80.37
2023-02-14T08:45:49.831Z,79.77
2023-02-14T08:48:54.367Z,79.63
2023-02-14T08:51:56.954Z,78.55
2023-02-14T08:54:59.587Z,77.91
2023-02-14T08:58:02.720Z,75.88
2023-02-14T09:01:13.446Z,76.04
2023-02-14T09:04:16.513Z,76.29
2023-02-14T09:07:19.895Z,76.00
2023-02-14T09:10:23.113Z,75.88
2023-02-14T09:13:25.679Z,74.86
2023-02-14T09:16:28.320Z,74.05
2023-02-14T09:19:35.866Z,73.27
2023-02-14T09:22:38.816Z,73.30
2023-02-14T09:25:41.377Z,72.48
2023-02-14T09:28:44.773Z,72.15
2023-02-14T09:31:48.839Z,71.23
2023-02-14T09:35:11.465Z,70.56
2023-02-14T09:38:14.012Z,70.09
2023-02-14T09:41:25.510Z,70.01
2023-02-14T09:44:32.244Z,69.65
2023-02-14T09:48:00.185Z,69.22
2023-02-14T09:51:07.241Z,68.88
2023-02-14T09:54:18.957Z,68.77
2023-02-14T09:57:30.304Z,67.49
2023-02-14T10:00:41.080Z,67.60
2023-02-14T10:03:59.120Z,66.73
2023-02-14T10:07:29.005Z,65.84
2023-02-14T10:10:51.574Z,66.19
2023-02-14T10:14:29.237Z,64.95
2023-02-14T10:18:06.980Z,63.40
2023-02-14T10:21:16.232Z,63.30
2023-02-14T10:24:33.935Z,62.46
2023-02-14T10:27:51.131Z,63.71
2023-02-14T10:31:24.432Z,63.74
2023-02-14T10:34:48.015Z,63.53
2023-02-14T10:38:08.496Z,62.81
2023-02-14T10:41:27.428Z,62.19
2023-02-14T10:45:10.352Z,62.96
2023-02-14T10:48:13.426Z,61.63
2023-02-14T10:51:33.373Z,62.13
2023-02-14T10:54:43.705Z,61.58
2023-02-14T10:57:51.550Z,61.91
2023-02-14T11:01:05.888Z,63.08
2023-02-14T11:04:13.216Z,60.47
2023-02-14T11:07:18.439Z,59.99
2023-02-14T11:10:30.106Z,59.77
2023-02-14T11:13:38.561Z,60.16
2023-02-14T11:16:41.161Z,60.45
2023-02-14T11:19:57.525Z,60.79
2023-02-14T11:23:00.085Z,60.73
2023-02-14T11:26:05.766Z,60.38
2023-02-14T11:29:21.841Z,60.04
2023-02-14T11:32:28.530Z,59.52
2023-02-14T11:35:37.159Z,59.78
2023-02-14T11:38:41.703Z,60.04
2023-02-14T11:41:50.621Z,60.21
2023-02-14T11:44:58.696Z,59.70
2023-02-14T11:48:27.853Z,60.67
2023-02-14T11:51:42.828Z,59.15
2023-02-14T11:54:49.381Z,59.62
2023-02-14T11:57:52.237Z,58.55
2023-02-14T12:00:54.998Z,59.31
2023-02-14T12:04:01.959Z,58.05
2023-02-14T12:07:18.958Z,56.98
2023-02-14T12:10:24.290Z,56.05
2023-02-14T12:13:26.930Z,56.58
2023-02-14T12:16:43.205Z,56.25
2023-02-14T12:20:03.639Z,56.30
2023-02-14T12:23:17.881Z,56.53
2023-02-14T12:26:35.208Z,56.32
2023-02-14T12:29:43.950Z,57.43
2023-02-14T12:32:56.764Z,55.41
2023-02-14T12:36:07.959Z,54.79
2023-02-14T12:39:19.517Z,54.26
2023-02-14T12:43:03.452Z,52.96
2023-02-14T12:46:19.290Z,52.21
2023-02-14T12:49:59.740Z,51.86
2023-02-14T12:53:39.786Z,51.21
2023-02-14T12:56:45.039Z,50.15
2023-02-14T13:00:23.357Z,48.69
2023-02-14T13:03:52.354Z,47.72
2023-02-14T13:07:03.824Z,47.57
2023-02-14T13:10:42.396Z,45.90
2023-02-14T13:13:51.011Z,44.45
2023-02-14T13:17:11.635Z,44.73
2023-02-14T13:20:26.098Z,42.87
2023-02-14T13:23:35.016Z,42.23
2023-02-14T13:26:43.129Z,41.46
2023-02-14T13:29:58.099Z,41.01
2023-02-14T13:33:10.089Z,39.78
2023-02-14T13:36:13.974Z,41.80
2023-02-14T13:39:36.030Z,40.23
2023-02-14T13:42:47.085Z,39.80
2023-02-14T13:45:54.534Z,39.74
2023-02-14T13:49:00.714Z,38.43
2023-02-14T13:52:05.081Z,39.48
2023-02-14T13:55:16.462Z,39.52
2023-02-14T13:58:22.026Z,40.98
2023-02-14T14:01:42.800Z,39.82
2023-02-14T14:04:45.291Z,39.56
2023-02-14T14:07:47.857Z,40.41
2023-02-14T14:10:56.004Z,40.08
2023-02-14T14:14:23.847Z,39.70
2023-02-14T14:17:27.662Z,39.57
2023-02-14T14:20:38.387Z,38.87
2023-02-14T14:23:41.024Z,39.27
2023-02-14T14:26:47.847Z,40.30
2023-02-14T14:29:56.402Z,41.51
2023-02-14T14:33:17.158Z,41.07
2023-02-14T14:36:23.999Z,41.30
2023-02-14T14:39:32.444Z,41.15
2023-02-14T14:42:38.417Z,41.34
2023-02-14T14:45:41.944Z,42.06
2023-02-14T14:48:50.636Z,41.38
2023-02-14T14:51:53.539Z,42.08
2023-02-14T14:54:57.455Z,42.45
2023-02-14T14:58:05.269Z,41.71
2023-02-14T15:01:13.242Z,40.76
2023-02-14T15:04:31.018Z,40.76
2023-02-14T15:07:34.965Z,42.22
2023-02-14T15:10:37.653Z,43.83
2023-02-14T15:13:53.660Z,45.09
2023-02-14T15:17:02.298Z,45.66
2023-02-14T15:20:10.121Z,46.22
2023-02-14T15:23:22.487Z,47.70
2023-02-14T15:26:31.923Z,49.46
2023-02-14T15:29:34.800Z,50.42
2023-02-14T15:32:38.188Z,51.52
2023-02-14T15:35:42.503Z,51.83
2023-02-14T15:38:51.676Z,52.96
2023-02-14T15:41:55.644Z,54.64
2023-02-14T15:45:22.599Z,55.72
2023-02-14T15:48:33.321Z,57.10
2023-02-14T15:51:37.477Z,57.71
2023-02-14T15:54:44.988Z,58.93
2023-02-14T15:57:55.376Z,60.27
2023-02-14T16:01:00.124Z,60.50
2023-02-14T16:04:05.890Z,62.09
2023-02-14T16:07:27.402Z,62.12
2023-02-14T16:10:32.886Z,63.40
2023-02-14T16:13:37.773Z,64.33
2023-02-14T16:17:01.351Z,65.30
2023-02-14T16:20:21.303Z,66.19
2023-02-14T16:23:27.535Z,66.68
2023-02-14T16:26:31.292Z,67.64
2023-02-14T16:29:36.477Z,68.43
2023-02-14T16:32:39.795Z,68.73
2023-02-14T16:35:42.782Z,69.11
2023-02-14T16:38:46.235Z,69.88
2023-02-14T16:41:50.134Z,70.47
2023-02-14T16:44:53.842Z,70.84
2023-02-14T16:47:56.592Z,71.46
2023-02-14T16:50:59.406Z,71.84
2023-02-14T16:54:08.031Z,72.40
2023-02-14T16:57:19.063Z,72.84
2023-02-14T17:00:22.871Z,72.65
2023-02-14T17:03:26.015Z,73.69
2023-02-14T17:06:32.335Z,72.97
2023-02-14T17:09:41.407Z,72.45
2023-02-14T17:12:47.445Z,72.30
2023-02-14T17:15:50.721Z,72.23
2023-02-14T17:18:53.724Z,72.44
2023-02-14T17:22:00.438Z,73.59
2023-02-14T17:25:06.180Z,73.94
2023-02-14T17:28:08.803Z,74.66
2023-02-14T17:31:11.969Z,74.98
2023-02-14T17:34:14.707Z,75.35
2023-02-14T17:37:19.002Z,75.68
2023-02-14T17:40:21.921Z,75.86
2023-02-14T17:43:24.779Z,75.72
2023-02-14T17:46:31.746Z,75.87
2023-02-14T17:49:34.657Z,76.56
2023-02-14T17:52:38.726Z,76.24
2023-02-14T17:55:41.696Z,76.07
2023-02-14T17:58:47.173Z,76.33
2023-02-14T18:01:51.493Z,76.72
2023-02-14T18:04:55.233Z,76.72
2023-02-14T18:07:58.006Z,77.22
2023-02-14T18:11:05.099Z,77.65
2023-02-14T18:14:08.268Z,78.23
2023-02-14T18:17:13.930Z,78.42
2023-02-14T18:20:16.690Z,78.93
2023-02-14T18:23:19.814Z,78.79
2023-02-14T18:26:23.912Z,79.42
2023-02-14T18:29:26.693Z,78.83
2023-02-14T18:32:29.177Z,78.97
2023-02-14T18:35:31.911Z,78.95
2023-02-14T18:38:35.158Z,79.31
2023-02-14T18:41:37.993Z,79.37
2023-02-14T18:44:41.836Z,79.27
2023-02-14T18:47:44.749Z,79.56
2023-02-14T18:50:47.526Z,79.55
2023-02-14T18:53:54.890Z,79.66
2023-02-14T18:56:58.784Z,79.96
2023-02-14T19:00:06.711Z,80.06
2023-02-14T19:03:09.597Z,80.37
2023-02-14T19:06:13.432Z,80.39
2023-02-14T19:09:17.560Z,81.00
2023-02-14T19:12:20.849Z,81.11
2023-02-14T19:15:23.581Z,81.29
2023-02-14T19:18:26.879Z,81.31
2023-02-14T19:21:32.029Z,81.26
2023-02-14T19:24:34.967Z,81.43
2023-02-14T19:27:37.905Z,81.59
2023-02-14T19:30:40.779Z,81.99
2023-02-14T19:33:46.509Z,81.77
2023-02-14T19:36:50.595Z,81.92
2023-02-14T19:39:53.951Z,81.66
2023-02-14T19:42:56.750Z,82.09
2023-02-14T19:46:04.236Z,82.56
2023-02-14T19:49:07.249Z,82.12
2023-02-14T19:52:26.430Z,82.46
2023-02-14T19:55:30.016Z,81.42
2023-02-14T19:58:33.038Z,81.95
2023-02-14T20:01:46.878Z,82.71
2023-02-14T20:04:49.609Z,82.56
2023-02-14T20:07:55.264Z,82.06
2023-02-14T20:10:58.153Z,82.02
2023-02-14T20:14:02.053Z,82.88
2023-02-14T20:17:07.938Z,82.72
2023-02-14T20:20:13.789Z,82.37
2023-02-14T20:23:16.621Z,83.47
2023-02-14T20:26:19.589Z,83.18
2023-02-14T20:29:23.851Z,83.24
2023-02-14T20:32:27.135Z,83.40
2023-02-14T20:35:34.081Z,83.83
2023-02-14T20:38:37.026Z,83.59
2023-02-14T20:41:39.902Z,82.90
2023-02-14T20:44:42.860Z,83.06
2023-02-14T20:47:48.981Z,83.23
2023-02-14T20:50:52.154Z,83.50
2023-02-14T20:53:55.140Z,83.79
2023-02-14T20:56:58.164Z,83.77
2023-02-14T21:00:01.466Z,83.93
2023-02-14T21:03:05.980Z,84.13
2023-02-14T21:06:11.643Z,84.05
2023-02-14T21:09:16.194Z,84.24
2023-02-14T21:12:20.674Z,84.52
2023-02-14T21:15:23.553Z,84.27
2023-02-14T21:18:26.331Z,84.37
2023-02-14T21:21:36.730Z,84.26
2023-02-14T21:24:40.380Z,84.57
2023-02-14T21:27:43.142Z,84.88
2023-02-14T21:30:45.712Z,85.42
2023-02-14T21:33:53.967Z,85.22
2023-02-14T21:36:56.766Z,85.07
2023-02-14T21:39:59.599Z,85.60
2023-02-14T21:43:02.475Z,85.50
2023-02-14T21:46:11.625Z,85.42
2023-02-14T21:49:32.606Z,85.10
2023-02-14T21:52:35.394Z,85.21
2023-02-14T21:55:38.554Z,85.26
2023-02-14T21:58:41.355Z,84.85
2023-02-14T22:01:44.152Z,84.86
2023-02-14T22:04:46.969Z,85.65
2023-02-14T22:07:49.513Z,85.56
2023-02-14T22:10:52.122Z,85.10
2023-02-14T22:13:55.694Z,85.51
2023-02-14T22:16:58.188Z,86.12
2023-02-14T22:20:00.880Z,86.52
2023-02-14T22:23:03.383Z,86.52
2023-02-14T22:26:16.819Z,86.51
2023-02-14T22:29:19.381Z,85.39
2023-02-14T22:32:21.893Z,86.24
2023-02-14T22:35:24.562Z,86.12
2023-02-14T22:38:27.619Z,85.95
2023-02-14T22:41:30.317Z,86.18
2023-02-14T22:44:33.031Z,86.26
2023-02-14T22:47:35.511Z,85.77
2023-02-14T22:50:38.210Z,85.96
2023-02-14T22:53:40.684Z,86.44
2023-02-14T22:56:48.464Z,85.95
2023-02-14T22:59:50.882Z,85.79
2023-02-14T23:02:53.572Z,86.30
2023-02-14T23:05:59.318Z,86.17
2023-02-14T23:09:04.033Z,86.30
2023-02-14T23:12:26.528Z,85.71
2023-02-14T23:15:47.520Z,86.04
2023-02-14T23:19:08.268Z,86.35
2023-02-14T23:22:26.040Z,86.03
2023-02-14T23:25:28.581Z,86.22
2023-02-14T23:28:31.080Z,86.28
2023-02-14T23:31:33.655Z,86.25
2023-02-14T23:34:38.503Z,86.79
2023-02-14T23:37:41.775Z,87.22
2023-02-14T23:41:03.026Z,87.32
2023-02-14T23:44:05.581Z,87.25
2023-02-14T23:47:10.189Z,86.63
2023-02-14T23:50:12.794Z,87.08
2023-02-14T23:53:16.193Z,86.90
2023-02-14T23:56:18.665Z,86.94
2023-02-14T23:59:22.181Z,86.21
